Sea Success — VRS4325 — position and weather

sailwx.info

Track history (hours):
 
Tides and Currents Weather Stations Pressure Air Temp Water Temp Dewpoint Dewpoint Depression Visibility Wind Speed Wind Dir Waves Ship Positions

Sea Success

Last reported at 2017-Jan-20 10:06 UTC. Time now 2017-Jan-24 21:22 UTC.
Position N 22°18' E 114°09'.

Length 27 m.

MMSI: 477995071.

Date/timePositionNaut miles runAvg speedWind from/ knotsBaromVisibWave heightAir tempDewpointWater temp
2017-Jan-20 10:06N 22°18' E 114°09'1 0.5
2017-Jan-20 08:24N 22°17' E 114°10'0 0.0
2017-Jan-20 05:24N 22°17' E 114°10'0 0.0
2017-Jan-20 02:25N 22°17' E 114°10'0 0.2
2017-Jan-20 00:12N 22°18' E 114°09'0 0.0
2017-Jan-19 11:16N 22°17' E 114°10'0 0.4
2017-Jan-19 10:06N 22°18' E 114°09'0 0.1
2017-Jan-19 08:23N 22°17' E 114°09'0 0.0
2017-Jan-19 05:24N 22°17' E 114°10'0 0.0
2017-Jan-19 02:24N 22°17' E 114°10'1 0.7
2017-Jan-19 00:15N 22°19' E 114°09'1 0.1
2017-Jan-18 11:16N 22°17' E 114°09'0 0.4
2017-Jan-18 10:05N 22°18' E 114°09'1 0.3
2017-Jan-18 08:25N 22°17' E 114°10'0 0.0
2017-Jan-18 05:25N 22°17' E 114°10'0 0.0
2017-Jan-18 02:26N 22°17' E 114°10'0 0.0
2017-Jan-17 11:18N 22°17' E 114°10'0 0.3
2017-Jan-17 10:05N 22°18' E 114°09'0 0.3
2017-Jan-17 08:24N 22°17' E 114°10'0 0.0
2017-Jan-17 05:25N 22°17' E 114°10'0 0.0
2017-Jan-17 02:27N 22°17' E 114°10'2 1.7
2017-Jan-17 01:04N 22°20' E 114°09'2 0.2
2017-Jan-16 11:12N 22°17' E 114°10'1 0.5
2017-Jan-16 10:06N 22°18' E 114°09'0 0.3
2017-Jan-16 08:25N 22°17' E 114°10'0 0.0
2017-Jan-16 05:24N 22°17' E 114°10'1 0.3
2017-Jan-16 00:32N 22°19' E 114°09'1 0.1
2017-Jan-15 09:17N 22°17' E 114°09'0 0.4
2017-Jan-15 08:09N 22°18' E 114°09'0 0.2
2017-Jan-15 06:18N 22°17' E 114°09'0 0.2
2017-Jan-15 04:33N 22°17' E 114°10'2 0.6
2017-Jan-15 02:05N 22°18' E 114°11'2 1.1
2017-Jan-15 00:04N 22°18' E 114°09'1 0.0
2017-Jan-14 11:16N 22°17' E 114°09'0 0.4
2017-Jan-14 10:06N 22°18' E 114°09'1 0.4
2017-Jan-14 08:31N 22°17' E 114°10'1 0.8
2017-Jan-14 07:21N 22°18' E 114°09'1 0.6
2017-Jan-14 06:13N 22°17' E 114°09'1 1.1
2017-Jan-14 05:33N 22°18' E 114°09'1 0.1
2017-Jan-13 23:31N 22°17' E 114°10'1 0.9
2017-Jan-13 22:33N 22°18' E 114°09'1 0.1
2017-Jan-13 12:33N 22°17' E 114°10'1 0.4
2017-Jan-13 11:06N 22°18' E 114°09'1 0.1
2017-Jan-13 05:07N 22°17' E 114°09'0 0.0
2017-Jan-13 03:30N 22°17' E 114°09'1 0.6
2017-Jan-13 02:26N 22°18' E 114°09'1 0.5
2017-Jan-13 01:06N 22°18' E 114°09'1 0.7
2017-Jan-12 23:31N 22°17' E 114°10'1 0.4
2017-Jan-12 22:10N 22°18' E 114°09'1 0.1
2017-Jan-12 12:33N 22°17' E 114°10'0 0.1
2017-Jan-12 11:04N 22°17' E 114°09'0 0.0
2017-Jan-12 06:12N 22°17' E 114°10'0 0.4
2017-Jan-12 05:33N 22°17' E 114°10'1 0.2
2017-Jan-12 02:10N 22°17' E 114°09'1 1.2
2017-Jan-12 01:27N 22°18' E 114°09'1 0.5
2017-Jan-11 23:30N 22°17' E 114°10'0 0.2
2017-Jan-11 22:10N 22°17' E 114°09'0 0.0
2017-Jan-11 12:16N 22°17' E 114°10'0 0.0
2017-Jan-11 10:33N 22°17' E 114°10'0 0.1
2017-Jan-11 09:32N 22°17' E 114°10'0 0.0
2017-Jan-11 08:14N 22°17' E 114°10'0 0.0
2017-Jan-11 06:18N 22°17' E 114°10'0 0.3
2017-Jan-11 05:04N 22°18' E 114°09'0 0.1
2017-Jan-11 03:33N 22°18' E 114°09'0 0.1
2017-Jan-11 02:05N 22°18' E 114°09'0 0.2
2017-Jan-11 01:08N 22°17' E 114°09'  
Track history (hours):
 
Tides and Currents Weather Stations Pressure Air Temp Water Temp Dewpoint Dewpoint Depression Visibility Wind Speed Wind Dir Waves Ship Positions

Sea Success

Last reported at 2017-Jan-20 10:06 UTC. Time now 2017-Jan-24 21:22 UTC.
Position N 22°18' E 114°09'.

Length 27 m.

MMSI: 477995071.

Date/timePositionNaut miles runAvg speedWind from/ knotsBaromVisibWave heightAir tempDewpointWater temp
2017-Jan-20 10:06N 22°18' E 114°09'1 0.5
2017-Jan-20 08:24N 22°17' E 114°10'0 0.0
2017-Jan-20 05:24N 22°17' E 114°10'0 0.0
2017-Jan-20 02:25N 22°17' E 114°10'0 0.2
2017-Jan-20 00:12N 22°18' E 114°09'0 0.0
2017-Jan-19 11:16N 22°17' E 114°10'0 0.4
2017-Jan-19 10:06N 22°18' E 114°09'0 0.1
2017-Jan-19 08:23N 22°17' E 114°09'0 0.0
2017-Jan-19 05:24N 22°17' E 114°10'0 0.0
2017-Jan-19 02:24N 22°17' E 114°10'1 0.7
2017-Jan-19 00:15N 22°19' E 114°09'1 0.1
2017-Jan-18 11:16N 22°17' E 114°09'0 0.4
2017-Jan-18 10:05N 22°18' E 114°09'1 0.3
2017-Jan-18 08:25N 22°17' E 114°10'0 0.0
2017-Jan-18 05:25N 22°17' E 114°10'0 0.0
2017-Jan-18 02:26N 22°17' E 114°10'0 0.0
2017-Jan-17 11:18N 22°17' E 114°10'0 0.3
2017-Jan-17 10:05N 22°18' E 114°09'0 0.3
2017-Jan-17 08:24N 22°17' E 114°10'0 0.0
2017-Jan-17 05:25N 22°17' E 114°10'0 0.0
2017-Jan-17 02:27N 22°17' E 114°10'2 1.7
2017-Jan-17 01:04N 22°20' E 114°09'2 0.2
2017-Jan-16 11:12N 22°17' E 114°10'1 0.5
2017-Jan-16 10:06N 22°18' E 114°09'0 0.3
2017-Jan-16 08:25N 22°17' E 114°10'0 0.0
2017-Jan-16 05:24N 22°17' E 114°10'1 0.3
2017-Jan-16 00:32N 22°19' E 114°09'1 0.1
2017-Jan-15 09:17N 22°17' E 114°09'0 0.4
2017-Jan-15 08:09N 22°18' E 114°09'0 0.2
2017-Jan-15 06:18N 22°17' E 114°09'0 0.2
2017-Jan-15 04:33N 22°17' E 114°10'2 0.6
2017-Jan-15 02:05N 22°18' E 114°11'2 1.1
2017-Jan-15 00:04N 22°18' E 114°09'1 0.0
2017-Jan-14 11:16N 22°17' E 114°09'0 0.4
2017-Jan-14 10:06N 22°18' E 114°09'1 0.4
2017-Jan-14 08:31N 22°17' E 114°10'1 0.8
2017-Jan-14 07:21N 22°18' E 114°09'1 0.6
2017-Jan-14 06:13N 22°17' E 114°09'1 1.1
2017-Jan-14 05:33N 22°18' E 114°09'1 0.1
2017-Jan-13 23:31N 22°17' E 114°10'1 0.9
2017-Jan-13 22:33N 22°18' E 114°09'1 0.1
2017-Jan-13 12:33N 22°17' E 114°10'1 0.4
2017-Jan-13 11:06N 22°18' E 114°09'1 0.1
2017-Jan-13 05:07N 22°17' E 114°09'0 0.0
2017-Jan-13 03:30N 22°17' E 114°09'1 0.6
2017-Jan-13 02:26N 22°18' E 114°09'1 0.5
2017-Jan-13 01:06N 22°18' E 114°09'1 0.7
2017-Jan-12 23:31N 22°17' E 114°10'1 0.4
2017-Jan-12 22:10N 22°18' E 114°09'1 0.1
2017-Jan-12 12:33N 22°17' E 114°10'0 0.1
2017-Jan-12 11:04N 22°17' E 114°09'0 0.0
2017-Jan-12 06:12N 22°17' E 114°10'0 0.4
2017-Jan-12 05:33N 22°17' E 114°10'1 0.2
2017-Jan-12 02:10N 22°17' E 114°09'1 1.2
2017-Jan-12 01:27N 22°18' E 114°09'1 0.5
2017-Jan-11 23:30N 22°17' E 114°10'0 0.2
2017-Jan-11 22:10N 22°17' E 114°09'0 0.0
2017-Jan-11 12:16N 22°17' E 114°10'0 0.0
2017-Jan-11 10:33N 22°17' E 114°10'0 0.1
2017-Jan-11 09:32N 22°17' E 114°10'0 0.0
2017-Jan-11 08:14N 22°17' E 114°10'0 0.0
2017-Jan-11 06:18N 22°17' E 114°10'0 0.3
2017-Jan-11 05:04N 22°18' E 114°09'0 0.1
2017-Jan-11 03:33N 22°18' E 114°09'0 0.1
2017-Jan-11 02:05N 22°18' E 114°09'0 0.2
2017-Jan-11 01:08N 22°17' E 114°09'  

Dump ship's entire track history